Capitol Logistics 3253


KMIA
Miami International Airport
Miami, Florida, US
KMTH
The Florida Keys Marathon International Airport
Marathon, Florida, US

Activity Log

Date Flight Route Aircraft Duration
10/23/2019 CPX653 SOUBY5 MNATE MTH SF34 0h 57m
06/16/2019 CPX653 SOUBY5 MNATE MTH SF34 0h 38m
06/05/2019 CPX653 MNATE2 MNATE SF34 0h 45m
04/30/2019 CPX653 SOUBY5 MNATE MTH SF34 0h 30m
04/07/2019 CPX653 SOUBY5 MNATE MTH SF34 0h 28m
04/02/2019 CPX653 SOUBY5 MNATE MTH SF34 0h 43m
03/20/2019 CPX653 SOUBY5 MNATE MTH SF34 1h 03m
03/06/2019 CPX653 SOUBY5 MNATE MTH SF34 0h 40m

Route Details

Aircraft Information
Primary: Saab 340AF
Backup: Not Available
Route Data
Distance: 96nm
Sched. Duration: 0h 55m
Avg. Duration: 0h 48m (-7m)
Times Flown: 8
Recm'd Route: SOUBY5 MNATE MTH
Planned Altitude: 7,000ft
Origin Wx: KMIA 051353Z 13008KT 10SM BKN016 BKN200 OVC250 29/26 A3004 RMK AO2 SLP171 T02940261
Dest. Wx: KMTH 051353Z AUTO 11006KT 9SM CLR 30/27 A2999 RMK AO2 SLP155 T03000267
Notes:

Financial History
Total Freight: 48,025lbs
Average Load: 6,003lbs/flt
Fuel Used: 4,915lbs
Avg. Fuel Used: 614lbs/flt
Fuel Expense: $6,045
Avg. Fuel Expense: $756
Avg. Fuel Cost: $1.23/lbs
Total Gross Income: $53,788
Pilot Pay: $1,272
Total Expenses: $6,225
Total Revenue: $40,283
Average Revenue: $6,723.50